sensor_id;sensor_type;location;lat;lon;timestamp;temperature;humidity
24560;DHT22;12727;49.934;8.656;2023-12-14T00:01:32;5.40;99.90
24560;DHT22;12727;49.934;8.656;2023-12-14T00:03:58;5.70;99.90
24560;DHT22;12727;49.934;8.656;2023-12-14T00:06:23;5.90;99.90
24560;DHT22;12727;49.934;8.656;2023-12-14T00:08:49;5.70;99.90
24560;DHT22;12727;49.934;8.656;2023-12-14T00:11:15;5.50;99.90
24560;DHT22;12727;49.934;8.656;2023-12-14T00:13:40;5.40;99.90
24560;DHT22;12727;49.934;8.656;2023-12-14T00:16:07;5.30;99.90
24560;DHT22;12727;49.934;8.656;2023-12-14T00:18:33;5.10;99.90
24560;DHT22;12727;49.934;8.656;2023-12-14T00:20:59;5.10;99.90
24560;DHT22;12727;49.934;8.656;2023-12-14T00:23:24;5.00;99.90
24560;DHT22;12727;49.934;8.656;2023-12-14T00:25:50;5.20;99.90
24560;DHT22;12727;49.934;8.656;2023-12-14T00:28:16;5.20;99.90
24560;DHT22;12727;49.934;8.656;2023-12-14T00:30:41;5.10;99.90
24560;DHT22;12727;49.934;8.656;2023-12-14T00:33:07;5.20;99.90
24560;DHT22;12727;49.934;8.656;2023-12-14T00:35:33;5.40;99.90
24560;DHT22;12727;49.934;8.656;2023-12-14T00:37:58;5.30;99.90
24560;DHT22;12727;49.934;8.656;2023-12-14T00:40:24;5.10;99.90
24560;DHT22;12727;49.934;8.656;2023-12-14T00:42:50;4.90;99.90
24560;DHT22;12727;49.934;8.656;2023-12-14T00:45:16;4.90;99.90
24560;DHT22;12727;49.934;8.656;2023-12-14T00:47:41;4.70;99.90
24560;DHT22;12727;49.934;8.656;2023-12-14T00:50:07;4.60;99.90
24560;DHT22;12727;49.934;8.656;2023-12-14T00:52:33;4.50;99.90
24560;DHT22;12727;49.934;8.656;2023-12-14T00:54:58;4.50;99.90
24560;DHT22;12727;49.934;8.656;2023-12-14T00:57:24;4.40;99.90
24560;DHT22;12727;49.934;8.656;2023-12-14T00:59:50;4.40;99.90
24560;DHT22;12727;49.934;8.656;2023-12-14T01:02:15;4.40;99.90
24560;DHT22;12727;49.934;8.656;2023-12-14T01:04:41;4.40;99.90
24560;DHT22;12727;49.934;8.656;2023-12-14T01:07:07;4.40;99.90
24560;DHT22;12727;49.934;8.656;2023-12-14T01:09:33;4.60;99.90
24560;DHT22;12727;49.934;8.656;2023-12-14T01:11:59;4.90;99.90
24560;DHT22;12727;49.934;8.656;2023-12-14T01:14:24;5.10;99.90
24560;DHT22;12727;49.934;8.656;2023-12-14T01:16:50;5.00;99.90
24560;DHT22;12727;49.934;8.656;2023-12-14T01:19:15;4.90;99.90
24560;DHT22;12727;49.934;8.656;2023-12-14T01:21:41;4.80;99.90
24560;DHT22;12727;49.934;8.656;2023-12-14T01:24:06;4.70;99.90
24560;DHT22;12727;49.934;8.656;2023-12-14T01:26:32;4.70;99.90
24560;DHT22;12727;49.934;8.656;2023-12-14T01:28:57;4.80;99.90
24560;DHT22;12727;49.934;8.656;2023-12-14T01:31:24;4.80;99.90
24560;DHT22;12727;49.934;8.656;2023-12-14T01:33:50;4.80;99.90
24560;DHT22;12727;49.934;8.656;2023-12-14T01:36:23;5.10;99.90
24560;DHT22;12727;49.934;8.656;2023-12-14T01:38:49;5.30;99.90
24560;DHT22;12727;49.934;8.656;2023-12-14T01:41:14;5.30;99.90
24560;DHT22;12727;49.934;8.656;2023-12-14T01:43:40;5.40;99.90
24560;DHT22;12727;49.934;8.656;2023-12-14T01:46:06;5.30;99.90
24560;DHT22;12727;49.934;8.656;2023-12-14T01:48:31;5.10;99.90
24560;DHT22;12727;49.934;8.656;2023-12-14T01:50:57;4.90;99.90
24560;DHT22;12727;49.934;8.656;2023-12-14T01:53:22;4.80;99.90
24560;DHT22;12727;49.934;8.656;2023-12-14T01:55:48;4.80;99.90
24560;DHT22;12727;49.934;8.656;2023-12-14T01:58:13;4.80;99.90
24560;DHT22;12727;49.934;8.656;2023-12-14T02:01:12;4.80;99.90
24560;DHT22;12727;49.934;8.656;2023-12-14T02:03:46;5.00;99.90
24560;DHT22;12727;49.934;8.656;2023-12-14T02:06:13;5.30;99.90
24560;DHT22;12727;49.934;8.656;2023-12-14T02:08:39;5.50;99.90
24560;DHT22;12727;49.934;8.656;2023-12-14T02:11:05;5.60;99.90
24560;DHT22;12727;49.934;8.656;2023-12-14T02:13:30;5.30;99.90
24560;DHT22;12727;49.934;8.656;2023-12-14T02:15:56;5.10;99.90
24560;DHT22;12727;49.934;8.656;2023-12-14T02:18:21;5.00;99.90
24560;DHT22;12727;49.934;8.656;2023-12-14T02:20:47;5.00;99.90
24560;DHT22;12727;49.934;8.656;2023-12-14T02:23:12;4.90;99.90
24560;DHT22;12727;49.934;8.656;2023-12-14T02:25:38;4.90;99.90
24560;DHT22;12727;49.934;8.656;2023-12-14T02:28:04;5.10;99.90
24560;DHT22;12727;49.934;8.656;2023-12-14T02:30:29;5.50;99.90
24560;DHT22;12727;49.934;8.656;2023-12-14T02:32:55;5.80;99.90
24560;DHT22;12727;49.934;8.656;2023-12-14T02:35:21;5.80;99.90
24560;DHT22;12727;49.934;8.656;2023-12-14T02:37:48;5.80;99.90
24560;DHT22;12727;49.934;8.656;2023-12-14T02:40:13;5.40;99.90
24560;DHT22;12727;49.934;8.656;2023-12-14T02:42:39;5.20;99.90
24560;DHT22;12727;49.934;8.656;2023-12-14T02:45:05;5.00;99.90
24560;DHT22;12727;49.934;8.656;2023-12-14T02:47:31;5.00;99.90
24560;DHT22;12727;49.934;8.656;2023-12-14T02:49:56;5.00;99.90
24560;DHT22;12727;49.934;8.656;2023-12-14T02:52:22;5.00;99.90
24560;DHT22;12727;49.934;8.656;2023-12-14T02:54:48;5.00;99.90
24560;DHT22;12727;49.934;8.656;2023-12-14T02:57:13;5.10;99.90
24560;DHT22;12727;49.934;8.656;2023-12-14T02:59:39;5.00;99.90
24560;DHT22;12727;49.934;8.656;2023-12-14T03:02:05;5.00;99.90
24560;DHT22;12727;49.934;8.656;2023-12-14T03:04:31;5.10;99.90
24560;DHT22;12727;49.934;8.656;2023-12-14T03:06:56;5.00;99.90
24560;DHT22;12727;49.934;8.656;2023-12-14T03:09:22;5.00;99.90
24560;DHT22;12727;49.934;8.656;2023-12-14T03:11:49;5.00;99.90
24560;DHT22;12727;49.934;8.656;2023-12-14T03:14:15;5.10;99.90
24560;DHT22;12727;49.934;8.656;2023-12-14T03:16:40;5.00;99.90
24560;DHT22;12727;49.934;8.656;2023-12-14T03:19:06;5.00;99.90
24560;DHT22;12727;49.934;8.656;2023-12-14T03:21:32;5.00;99.90
24560;DHT22;12727;49.934;8.656;2023-12-14T03:23:57;5.10;99.90
24560;DHT22;12727;49.934;8.656;2023-12-14T03:26:23;5.10;99.90
24560;DHT22;12727;49.934;8.656;2023-12-14T03:28:48;5.10;99.90
24560;DHT22;12727;49.934;8.656;2023-12-14T03:31:14;5.10;99.90
24560;DHT22;12727;49.934;8.656;2023-12-14T03:33:40;5.10;99.90
24560;DHT22;12727;49.934;8.656;2023-12-14T03:36:06;5.10;99.90
24560;DHT22;12727;49.934;8.656;2023-12-14T03:38:32;5.10;99.90
24560;DHT22;12727;49.934;8.656;2023-12-14T03:40:58;5.10;99.90
24560;DHT22;12727;49.934;8.656;2023-12-14T03:43:24;5.10;99.90
24560;DHT22;12727;49.934;8.656;2023-12-14T03:45:49;5.20;99.90
24560;DHT22;12727;49.934;8.656;2023-12-14T03:48:15;5.30;99.90
24560;DHT22;12727;49.934;8.656;2023-12-14T03:50:40;5.20;99.90
24560;DHT22;12727;49.934;8.656;2023-12-14T03:53:06;5.30;99.90
24560;DHT22;12727;49.934;8.656;2023-12-14T03:55:32;5.30;99.90
24560;DHT22;12727;49.934;8.656;2023-12-14T03:57:58;5.30;99.90
24560;DHT22;12727;49.934;8.656;2023-12-14T04:00:24;5.30;99.90
24560;DHT22;12727;49.934;8.656;2023-12-14T04:02:50;5.20;99.90
24560;DHT22;12727;49.934;8.656;2023-12-14T04:05:16;5.20;99.90
24560;DHT22;12727;49.934;8.656;2023-12-14T04:07:41;5.20;99.90
24560;DHT22;12727;49.934;8.656;2023-12-14T04:10:11;5.20;99.90
24560;DHT22;12727;49.934;8.656;2023-12-14T04:12:38;5.20;99.90
24560;DHT22;12727;49.934;8.656;2023-12-14T04:15:08;5.20;99.90
24560;DHT22;12727;49.934;8.656;2023-12-14T04:17:34;5.20;99.90
24560;DHT22;12727;49.934;8.656;2023-12-14T04:20:00;5.20;99.90
24560;DHT22;12727;49.934;8.656;2023-12-14T04:22:26;5.20;99.90
24560;DHT22;12727;49.934;8.656;2023-12-14T04:24:52;5.20;99.90
24560;DHT22;12727;49.934;8.656;2023-12-14T04:27:18;5.30;99.90
24560;DHT22;12727;49.934;8.656;2023-12-14T04:29:43;5.30;99.90
24560;DHT22;12727;49.934;8.656;2023-12-14T04:32:09;5.30;99.90
24560;DHT22;12727;49.934;8.656;2023-12-14T04:34:35;5.20;99.90
24560;DHT22;12727;49.934;8.656;2023-12-14T04:37:01;5.20;99.90
24560;DHT22;12727;49.934;8.656;2023-12-14T04:39:27;5.20;99.90
24560;DHT22;12727;49.934;8.656;2023-12-14T04:41:53;5.20;99.90
24560;DHT22;12727;49.934;8.656;2023-12-14T04:44:19;5.20;99.90
24560;DHT22;12727;49.934;8.656;2023-12-14T04:46:45;5.30;99.90
24560;DHT22;12727;49.934;8.656;2023-12-14T04:49:10;5.30;99.90
24560;DHT22;12727;49.934;8.656;2023-12-14T04:51:36;5.30;99.90
24560;DHT22;12727;49.934;8.656;2023-12-14T04:54:02;5.40;99.90
24560;DHT22;12727;49.934;8.656;2023-12-14T04:56:28;5.30;99.90
24560;DHT22;12727;49.934;8.656;2023-12-14T04:58:53;5.30;99.90
24560;DHT22;12727;49.934;8.656;2023-12-14T05:01:19;5.20;99.90
24560;DHT22;12727;49.934;8.656;2023-12-14T05:03:45;5.20;99.90
24560;DHT22;12727;49.934;8.656;2023-12-14T05:06:10;5.20;99.90
24560;DHT22;12727;49.934;8.656;2023-12-14T05:08:36;5.10;99.90
24560;DHT22;12727;49.934;8.656;2023-12-14T05:11:02;5.10;99.90
24560;DHT22;12727;49.934;8.656;2023-12-14T05:13:28;5.10;99.90
24560;DHT22;12727;49.934;8.656;2023-12-14T05:15:54;5.20;99.90
24560;DHT22;12727;49.934;8.656;2023-12-14T05:18:19;5.20;99.90
24560;DHT22;12727;49.934;8.656;2023-12-14T05:20:45;5.20;99.90
24560;DHT22;12727;49.934;8.656;2023-12-14T05:23:11;5.20;99.90
24560;DHT22;12727;49.934;8.656;2023-12-14T05:25:38;5.20;99.90
24560;DHT22;12727;49.934;8.656;2023-12-14T05:28:03;5.20;99.90
24560;DHT22;12727;49.934;8.656;2023-12-14T05:30:29;5.20;99.90
24560;DHT22;12727;49.934;8.656;2023-12-14T05:32:55;5.20;99.90
24560;DHT22;12727;49.934;8.656;2023-12-14T05:35:21;5.20;99.90
24560;DHT22;12727;49.934;8.656;2023-12-14T05:37:47;5.20;99.90
24560;DHT22;12727;49.934;8.656;2023-12-14T05:40:12;5.20;99.90
24560;DHT22;12727;49.934;8.656;2023-12-14T05:42:38;5.20;99.90
24560;DHT22;12727;49.934;8.656;2023-12-14T05:45:05;5.20;99.90
24560;DHT22;12727;49.934;8.656;2023-12-14T05:47:30;5.20;99.90
24560;DHT22;12727;49.934;8.656;2023-12-14T05:49:57;5.20;99.90
24560;DHT22;12727;49.934;8.656;2023-12-14T05:52:23;5.20;99.90
24560;DHT22;12727;49.934;8.656;2023-12-14T05:54:48;5.30;99.90
24560;DHT22;12727;49.934;8.656;2023-12-14T05:57:14;5.30;99.90
24560;DHT22;12727;49.934;8.656;2023-12-14T05:59:39;5.30;99.90
24560;DHT22;12727;49.934;8.656;2023-12-14T06:02:05;5.20;99.90
24560;DHT22;12727;49.934;8.656;2023-12-14T06:04:32;5.20;99.90
24560;DHT22;12727;49.934;8.656;2023-12-14T06:06:58;5.30;99.90
24560;DHT22;12727;49.934;8.656;2023-12-14T06:09:24;5.30;99.90
24560;DHT22;12727;49.934;8.656;2023-12-14T06:11:55;5.20;99.90
24560;DHT22;12727;49.934;8.656;2023-12-14T06:14:21;5.20;99.90
24560;DHT22;12727;49.934;8.656;2023-12-14T06:16:48;5.30;99.90
24560;DHT22;12727;49.934;8.656;2023-12-14T06:19:13;5.40;99.90
24560;DHT22;12727;49.934;8.656;2023-12-14T06:21:40;5.40;99.90
24560;DHT22;12727;49.934;8.656;2023-12-14T06:24:06;5.30;99.90
24560;DHT22;12727;49.934;8.656;2023-12-14T06:26:31;5.30;99.90
24560;DHT22;12727;49.934;8.656;2023-12-14T06:28:57;5.30;99.90
24560;DHT22;12727;49.934;8.656;2023-12-14T06:31:22;5.40;99.90
24560;DHT22;12727;49.934;8.656;2023-12-14T06:33:48;5.40;99.90
24560;DHT22;12727;49.934;8.656;2023-12-14T06:36:16;5.40;99.90
24560;DHT22;12727;49.934;8.656;2023-12-14T06:38:44;5.50;99.90
24560;DHT22;12727;49.934;8.656;2023-12-14T06:41:21;5.60;99.90
24560;DHT22;12727;49.934;8.656;2023-12-14T06:43:46;5.60;99.90
24560;DHT22;12727;49.934;8.656;2023-12-14T06:46:12;5.60;99.90
24560;DHT22;12727;49.934;8.656;2023-12-14T06:48:38;5.50;99.90
24560;DHT22;12727;49.934;8.656;2023-12-14T06:51:04;5.50;99.90
24560;DHT22;12727;49.934;8.656;2023-12-14T06:53:29;5.40;99.90
24560;DHT22;12727;49.934;8.656;2023-12-14T06:55:55;5.40;99.90
24560;DHT22;12727;49.934;8.656;2023-12-14T06:58:21;5.40;99.90
24560;DHT22;12727;49.934;8.656;2023-12-14T07:00:46;5.40;99.90
24560;DHT22;12727;49.934;8.656;2023-12-14T07:03:13;5.40;99.90
24560;DHT22;12727;49.934;8.656;2023-12-14T07:05:39;5.50;99.90
24560;DHT22;12727;49.934;8.656;2023-12-14T07:08:04;5.50;99.90
24560;DHT22;12727;49.934;8.656;2023-12-14T07:10:30;5.60;99.90
24560;DHT22;12727;49.934;8.656;2023-12-14T07:12:56;5.60;99.90
24560;DHT22;12727;49.934;8.656;2023-12-14T07:15:22;5.60;99.90
24560;DHT22;12727;49.934;8.656;2023-12-14T07:17:47;5.60;99.90
24560;DHT22;12727;49.934;8.656;2023-12-14T07:20:13;5.50;99.90
24560;DHT22;12727;49.934;8.656;2023-12-14T07:22:38;5.50;99.90
24560;DHT22;12727;49.934;8.656;2023-12-14T07:25:04;5.50;99.90
24560;DHT22;12727;49.934;8.656;2023-12-14T07:27:30;5.50;99.90
24560;DHT22;12727;49.934;8.656;2023-12-14T07:29:55;5.50;99.90
24560;DHT22;12727;49.934;8.656;2023-12-14T07:32:23;5.50;99.90
24560;DHT22;12727;49.934;8.656;2023-12-14T07:34:49;5.60;99.90
24560;DHT22;12727;49.934;8.656;2023-12-14T07:37:14;5.70;99.90
24560;DHT22;12727;49.934;8.656;2023-12-14T07:39:40;5.70;99.90
24560;DHT22;12727;49.934;8.656;2023-12-14T07:42:05;5.70;99.90
24560;DHT22;12727;49.934;8.656;2023-12-14T07:44:31;5.80;99.90
24560;DHT22;12727;49.934;8.656;2023-12-14T07:46:59;5.80;99.90
24560;DHT22;12727;49.934;8.656;2023-12-14T07:49:25;5.80;99.90
24560;DHT22;12727;49.934;8.656;2023-12-14T07:51:51;5.80;99.90
24560;DHT22;12727;49.934;8.656;2023-12-14T07:54:17;5.80;99.90
24560;DHT22;12727;49.934;8.656;2023-12-14T07:56:43;5.80;99.90
24560;DHT22;12727;49.934;8.656;2023-12-14T07:59:09;5.80;99.90
24560;DHT22;12727;49.934;8.656;2023-12-14T08:01:35;5.80;99.90
24560;DHT22;12727;49.934;8.656;2023-12-14T08:04:02;5.90;99.90
24560;DHT22;12727;49.934;8.656;2023-12-14T08:06:28;5.90;99.90
24560;DHT22;12727;49.934;8.656;2023-12-14T08:08:55;5.80;99.90
24560;DHT22;12727;49.934;8.656;2023-12-14T08:11:23;5.90;99.90
24560;DHT22;12727;49.934;8.656;2023-12-14T08:13:49;5.90;99.90
24560;DHT22;12727;49.934;8.656;2023-12-14T08:16:14;5.90;99.90
24560;DHT22;12727;49.934;8.656;2023-12-14T08:18:42;5.90;99.90
24560;DHT22;12727;49.934;8.656;2023-12-14T08:21:10;6.00;99.90
24560;DHT22;12727;49.934;8.656;2023-12-14T08:23:35;6.00;99.90
24560;DHT22;12727;49.934;8.656;2023-12-14T08:26:01;6.10;99.90
24560;DHT22;12727;49.934;8.656;2023-12-14T08:28:28;6.20;99.90
24560;DHT22;12727;49.934;8.656;2023-12-14T08:30:53;6.20;99.90
24560;DHT22;12727;49.934;8.656;2023-12-14T08:33:19;6.30;99.90
24560;DHT22;12727;49.934;8.656;2023-12-14T08:35:45;6.40;99.90
24560;DHT22;12727;49.934;8.656;2023-12-14T08:38:11;6.40;99.90
24560;DHT22;12727;49.934;8.656;2023-12-14T08:40:37;6.40;99.90
24560;DHT22;12727;49.934;8.656;2023-12-14T08:43:03;6.40;99.90
24560;DHT22;12727;49.934;8.656;2023-12-14T08:45:29;6.40;99.90
24560;DHT22;12727;49.934;8.656;2023-12-14T08:47:54;6.60;99.90
24560;DHT22;12727;49.934;8.656;2023-12-14T08:50:20;6.80;99.90
24560;DHT22;12727;49.934;8.656;2023-12-14T08:52:46;7.00;99.90
24560;DHT22;12727;49.934;8.656;2023-12-14T08:55:12;7.00;99.90
24560;DHT22;12727;49.934;8.656;2023-12-14T08:57:39;7.10;99.90
24560;DHT22;12727;49.934;8.656;2023-12-14T09:00:05;7.20;99.90
24560;DHT22;12727;49.934;8.656;2023-12-14T09:02:32;7.00;99.90
24560;DHT22;12727;49.934;8.656;2023-12-14T09:04:58;6.80;99.90
24560;DHT22;12727;49.934;8.656;2023-12-14T09:07:24;6.90;99.90
24560;DHT22;12727;49.934;8.656;2023-12-14T09:09:49;6.90;99.90
24560;DHT22;12727;49.934;8.656;2023-12-14T09:12:15;7.10;99.90
24560;DHT22;12727;49.934;8.656;2023-12-14T09:14:40;7.10;99.90
24560;DHT22;12727;49.934;8.656;2023-12-14T09:17:06;7.00;99.90
24560;DHT22;12727;49.934;8.656;2023-12-14T09:19:32;7.00;99.90
24560;DHT22;12727;49.934;8.656;2023-12-14T09:21:57;7.00;99.90
24560;DHT22;12727;49.934;8.656;2023-12-14T09:24:23;7.20;99.90
24560;DHT22;12727;49.934;8.656;2023-12-14T09:26:49;7.20;99.90
24560;DHT22;12727;49.934;8.656;2023-12-14T09:29:14;7.10;99.90
24560;DHT22;12727;49.934;8.656;2023-12-14T09:31:43;7.20;99.90
24560;DHT22;12727;49.934;8.656;2023-12-14T09:34:11;7.40;99.90
24560;DHT22;12727;49.934;8.656;2023-12-14T09:36:38;7.50;99.90
24560;DHT22;12727;49.934;8.656;2023-12-14T09:39:04;7.60;99.90
24560;DHT22;12727;49.934;8.656;2023-12-14T09:41:36;7.50;99.90
24560;DHT22;12727;49.934;8.656;2023-12-14T09:44:03;7.60;99.90
24560;DHT22;12727;49.934;8.656;2023-12-14T09:46:29;7.60;99.90
24560;DHT22;12727;49.934;8.656;2023-12-14T09:48:57;7.50;99.90
24560;DHT22;12727;49.934;8.656;2023-12-14T09:51:23;7.50;99.90
24560;DHT22;12727;49.934;8.656;2023-12-14T09:53:49;7.60;99.90
24560;DHT22;12727;49.934;8.656;2023-12-14T09:56:16;7.50;99.90
24560;DHT22;12727;49.934;8.656;2023-12-14T09:58:41;7.60;99.90
24560;DHT22;12727;49.934;8.656;2023-12-14T10:01:27;7.70;99.90
24560;DHT22;12727;49.934;8.656;2023-12-14T10:04:25;7.70;99.90
24560;DHT22;12727;49.934;8.656;2023-12-14T10:06:51;7.70;99.90
24560;DHT22;12727;49.934;8.656;2023-12-14T10:09:23;7.70;99.90
24560;DHT22;12727;49.934;8.656;2023-12-14T10:12:03;7.80;99.90
24560;DHT22;12727;49.934;8.656;2023-12-14T10:14:29;7.90;99.90
24560;DHT22;12727;49.934;8.656;2023-12-14T10:16:55;8.00;99.90
24560;DHT22;12727;49.934;8.656;2023-12-14T10:19:21;7.90;99.90
24560;DHT22;12727;49.934;8.656;2023-12-14T10:21:47;7.80;99.90
24560;DHT22;12727;49.934;8.656;2023-12-14T10:24:14;7.80;99.90
24560;DHT22;12727;49.934;8.656;2023-12-14T10:26:39;7.70;99.90
24560;DHT22;12727;49.934;8.656;2023-12-14T10:29:06;7.70;99.90
24560;DHT22;12727;49.934;8.656;2023-12-14T10:31:32;7.70;99.90
24560;DHT22;12727;49.934;8.656;2023-12-14T10:34:05;7.80;99.90
24560;DHT22;12727;49.934;8.656;2023-12-14T10:36:32;7.70;99.90
24560;DHT22;12727;49.934;8.656;2023-12-14T10:38:59;7.70;99.90
24560;DHT22;12727;49.934;8.656;2023-12-14T10:41:25;7.70;99.90
24560;DHT22;12727;49.934;8.656;2023-12-14T10:43:53;7.60;99.90
24560;DHT22;12727;49.934;8.656;2023-12-14T10:46:19;7.60;99.90
24560;DHT22;12727;49.934;8.656;2023-12-14T10:48:47;7.70;99.90
24560;DHT22;12727;49.934;8.656;2023-12-14T10:51:13;7.80;99.90
24560;DHT22;12727;49.934;8.656;2023-12-14T10:53:41;7.80;99.90
24560;DHT22;12727;49.934;8.656;2023-12-14T10:56:12;7.90;99.90
24560;DHT22;12727;49.934;8.656;2023-12-14T10:58:52;8.00;99.90
24560;DHT22;12727;49.934;8.656;2023-12-14T11:01:22;8.00;99.90
24560;DHT22;12727;49.934;8.656;2023-12-14T11:03:53;8.00;99.90
24560;DHT22;12727;49.934;8.656;2023-12-14T11:08:51;7.90;99.90
24560;DHT22;12727;49.934;8.656;2023-12-14T11:11:17;7.90;99.90
24560;DHT22;12727;49.934;8.656;2023-12-14T11:13:50;8.00;99.90
24560;DHT22;12727;49.934;8.656;2023-12-14T11:16:16;7.90;99.90
24560;DHT22;12727;49.934;8.656;2023-12-14T11:18:41;7.90;99.90
24560;DHT22;12727;49.934;8.656;2023-12-14T11:21:07;7.90;99.90
24560;DHT22;12727;49.934;8.656;2023-12-14T11:23:35;7.80;99.90
24560;DHT22;12727;49.934;8.656;2023-12-14T11:26:06;7.90;99.90
24560;DHT22;12727;49.934;8.656;2023-12-14T11:28:39;7.90;99.90
24560;DHT22;12727;49.934;8.656;2023-12-14T11:31:11;8.00;99.90
24560;DHT22;12727;49.934;8.656;2023-12-14T11:33:37;7.90;99.90
24560;DHT22;12727;49.934;8.656;2023-12-14T11:36:03;7.90;99.90
24560;DHT22;12727;49.934;8.656;2023-12-14T11:38:29;7.80;99.90
24560;DHT22;12727;49.934;8.656;2023-12-14T11:40:55;7.80;99.90
24560;DHT22;12727;49.934;8.656;2023-12-14T11:43:21;7.80;99.90
24560;DHT22;12727;49.934;8.656;2023-12-14T11:45:47;7.70;99.90
24560;DHT22;12727;49.934;8.656;2023-12-14T11:48:13;7.80;99.90
24560;DHT22;12727;49.934;8.656;2023-12-14T11:50:42;7.80;99.90
24560;DHT22;12727;49.934;8.656;2023-12-14T11:53:08;7.90;99.90
24560;DHT22;12727;49.934;8.656;2023-12-14T11:55:35;7.90;99.90
24560;DHT22;12727;49.934;8.656;2023-12-14T11:58:03;8.00;99.90
24560;DHT22;12727;49.934;8.656;2023-12-14T12:00:29;8.00;99.90
24560;DHT22;12727;49.934;8.656;2023-12-14T12:03:19;8.10;99.90
24560;DHT22;12727;49.934;8.656;2023-12-14T12:05:48;8.10;99.90
24560;DHT22;12727;49.934;8.656;2023-12-14T12:08:15;8.10;99.90
24560;DHT22;12727;49.934;8.656;2023-12-14T12:10:42;8.00;99.90
24560;DHT22;12727;49.934;8.656;2023-12-14T12:13:13;8.00;99.90
24560;DHT22;12727;49.934;8.656;2023-12-14T12:15:39;8.00;99.90
24560;DHT22;12727;49.934;8.656;2023-12-14T12:18:07;7.90;99.90
24560;DHT22;12727;49.934;8.656;2023-12-14T12:20:33;8.00;99.90
24560;DHT22;12727;49.934;8.656;2023-12-14T12:22:59;8.10;99.90
24560;DHT22;12727;49.934;8.656;2023-12-14T12:25:25;8.10;99.90
24560;DHT22;12727;49.934;8.656;2023-12-14T12:27:52;8.00;99.90
24560;DHT22;12727;49.934;8.656;2023-12-14T12:30:18;8.20;99.90
24560;DHT22;12727;49.934;8.656;2023-12-14T12:32:44;8.20;99.90
24560;DHT22;12727;49.934;8.656;2023-12-14T12:35:10;8.30;99.90
24560;DHT22;12727;49.934;8.656;2023-12-14T12:37:36;8.40;99.90
24560;DHT22;12727;49.934;8.656;2023-12-14T12:40:01;8.30;99.90
24560;DHT22;12727;49.934;8.656;2023-12-14T12:42:27;8.20;99.90
24560;DHT22;12727;49.934;8.656;2023-12-14T12:44:54;8.10;99.90
24560;DHT22;12727;49.934;8.656;2023-12-14T12:47:20;8.00;99.90
24560;DHT22;12727;49.934;8.656;2023-12-14T12:49:46;8.00;99.90
24560;DHT22;12727;49.934;8.656;2023-12-14T12:52:11;8.00;99.90
24560;DHT22;12727;49.934;8.656;2023-12-14T12:54:37;8.00;99.90
24560;DHT22;12727;49.934;8.656;2023-12-14T12:57:03;8.10;99.90
24560;DHT22;12727;49.934;8.656;2023-12-14T12:59:28;8.10;99.90
24560;DHT22;12727;49.934;8.656;2023-12-14T13:01:54;8.10;99.90
24560;DHT22;12727;49.934;8.656;2023-12-14T13:04:23;8.20;99.90
24560;DHT22;12727;49.934;8.656;2023-12-14T13:06:49;8.10;99.90
24560;DHT22;12727;49.934;8.656;2023-12-14T13:09:15;8.20;99.90
24560;DHT22;12727;49.934;8.656;2023-12-14T13:11:45;8.20;99.90
24560;DHT22;12727;49.934;8.656;2023-12-14T13:14:10;8.20;99.90
24560;DHT22;12727;49.934;8.656;2023-12-14T13:16:37;8.20;99.90
24560;DHT22;12727;49.934;8.656;2023-12-14T13:19:03;8.20;99.90
24560;DHT22;12727;49.934;8.656;2023-12-14T13:21:30;8.30;99.90
24560;DHT22;12727;49.934;8.656;2023-12-14T13:23:55;8.30;99.90
24560;DHT22;12727;49.934;8.656;2023-12-14T13:26:23;8.40;99.90
24560;DHT22;12727;49.934;8.656;2023-12-14T13:28:50;8.40;99.90
24560;DHT22;12727;49.934;8.656;2023-12-14T13:31:16;8.30;99.90
24560;DHT22;12727;49.934;8.656;2023-12-14T13:33:42;8.30;99.90
24560;DHT22;12727;49.934;8.656;2023-12-14T13:36:08;8.30;99.90
24560;DHT22;12727;49.934;8.656;2023-12-14T13:38:34;8.30;99.90
24560;DHT22;12727;49.934;8.656;2023-12-14T13:41:02;8.30;99.90
24560;DHT22;12727;49.934;8.656;2023-12-14T13:43:31;8.20;99.90
24560;DHT22;12727;49.934;8.656;2023-12-14T13:45:57;8.30;99.90
24560;DHT22;12727;49.934;8.656;2023-12-14T13:48:26;8.20;99.90
24560;DHT22;12727;49.934;8.656;2023-12-14T13:50:53;8.10;99.90
24560;DHT22;12727;49.934;8.656;2023-12-14T13:53:19;8.10;99.90
24560;DHT22;12727;49.934;8.656;2023-12-14T13:55:46;8.10;99.90
24560;DHT22;12727;49.934;8.656;2023-12-14T13:58:12;8.10;99.90
24560;DHT22;12727;49.934;8.656;2023-12-14T14:00:38;8.10;99.90
24560;DHT22;12727;49.934;8.656;2023-12-14T14:03:04;8.10;99.90
24560;DHT22;12727;49.934;8.656;2023-12-14T14:05:33;8.00;99.90
24560;DHT22;12727;49.934;8.656;2023-12-14T14:07:59;7.90;99.90
24560;DHT22;12727;49.934;8.656;2023-12-14T14:10:25;7.90;99.90
24560;DHT22;12727;49.934;8.656;2023-12-14T14:12:51;7.80;99.90
24560;DHT22;12727;49.934;8.656;2023-12-14T14:15:17;7.90;99.90
24560;DHT22;12727;49.934;8.656;2023-12-14T14:17:43;7.90;99.90
24560;DHT22;12727;49.934;8.656;2023-12-14T14:20:09;7.90;99.90
24560;DHT22;12727;49.934;8.656;2023-12-14T14:22:38;7.90;99.90
24560;DHT22;12727;49.934;8.656;2023-12-14T14:25:05;7.90;99.90
24560;DHT22;12727;49.934;8.656;2023-12-14T14:27:34;7.80;99.90
24560;DHT22;12727;49.934;8.656;2023-12-14T14:30:00;7.80;99.90
24560;DHT22;12727;49.934;8.656;2023-12-14T14:32:26;7.80;99.90
24560;DHT22;12727;49.934;8.656;2023-12-14T14:34:52;7.80;99.90
24560;DHT22;12727;49.934;8.656;2023-12-14T14:37:20;7.90;99.90
24560;DHT22;12727;49.934;8.656;2023-12-14T14:39:45;8.00;99.90
24560;DHT22;12727;49.934;8.656;2023-12-14T14:42:13;7.90;99.90
24560;DHT22;12727;49.934;8.656;2023-12-14T14:44:39;7.80;99.90
24560;DHT22;12727;49.934;8.656;2023-12-14T14:47:04;7.80;99.90
24560;DHT22;12727;49.934;8.656;2023-12-14T14:49:30;7.80;99.90
24560;DHT22;12727;49.934;8.656;2023-12-14T14:51:55;7.70;99.90
24560;DHT22;12727;49.934;8.656;2023-12-14T14:54:21;7.70;99.90
24560;DHT22;12727;49.934;8.656;2023-12-14T14:56:47;7.70;99.90
24560;DHT22;12727;49.934;8.656;2023-12-14T14:59:12;7.70;99.90
24560;DHT22;12727;49.934;8.656;2023-12-14T15:01:41;7.70;99.90
24560;DHT22;12727;49.934;8.656;2023-12-14T15:04:07;7.60;99.90
24560;DHT22;12727;49.934;8.656;2023-12-14T15:06:33;7.50;99.90
24560;DHT22;12727;49.934;8.656;2023-12-14T15:08:59;7.50;99.90
24560;DHT22;12727;49.934;8.656;2023-12-14T15:11:25;7.50;99.90
24560;DHT22;12727;49.934;8.656;2023-12-14T15:13:50;7.50;99.90
24560;DHT22;12727;49.934;8.656;2023-12-14T15:16:17;7.60;99.90
24560;DHT22;12727;49.934;8.656;2023-12-14T15:18:44;7.60;99.90
24560;DHT22;12727;49.934;8.656;2023-12-14T15:21:10;7.70;99.90
24560;DHT22;12727;49.934;8.656;2023-12-14T15:23:37;7.60;99.90
24560;DHT22;12727;49.934;8.656;2023-12-14T15:26:03;7.40;99.90
24560;DHT22;12727;49.934;8.656;2023-12-14T15:28:28;7.30;99.90
24560;DHT22;12727;49.934;8.656;2023-12-14T15:30:54;7.30;99.90
24560;DHT22;12727;49.934;8.656;2023-12-14T15:33:20;7.20;99.90
24560;DHT22;12727;49.934;8.656;2023-12-14T15:35:46;7.30;99.90
24560;DHT22;12727;49.934;8.656;2023-12-14T15:38:12;7.30;99.90
24560;DHT22;12727;49.934;8.656;2023-12-14T15:40:38;7.30;99.90
24560;DHT22;12727;49.934;8.656;2023-12-14T15:43:04;7.20;99.90